createdAt,value
2019-05-01T00:01:11.370Z,27.90
2019-05-01T00:04:15.282Z,25.60
2019-05-01T00:06:52.597Z,28.30
2019-05-01T00:09:25.146Z,24.90
2019-05-01T00:11:57.927Z,25.58
2019-05-01T00:14:30.781Z,28.30
2019-05-01T00:17:03.727Z,30.00
2019-05-01T00:19:36.295Z,30.60
2019-05-01T00:22:10.748Z,31.23
2019-05-01T00:24:47.586Z,30.50
2019-05-01T00:27:20.799Z,30.37
2019-05-01T00:29:54.155Z,32.57
2019-05-01T00:32:27.835Z,31.23
2019-05-01T00:35:00.312Z,30.80
2019-05-01T00:37:33.148Z,34.27
2019-05-01T00:40:05.765Z,33.00
2019-05-01T00:42:39.066Z,33.73
2019-05-01T00:45:13.452Z,31.23
2019-05-01T00:47:46.734Z,33.03
2019-05-01T00:50:19.332Z,33.53
2019-05-01T00:52:53.605Z,33.63
2019-05-01T00:55:31.470Z,34.40
2019-05-01T00:58:13.923Z,34.50
2019-05-01T01:00:59.160Z,28.87
2019-05-01T01:03:31.911Z,30.27
2019-05-01T01:06:05.544Z,26.70
2019-05-01T01:08:38.186Z,33.23
2019-05-01T01:11:11.104Z,31.43
2019-05-01T01:13:44.427Z,32.37
2019-05-01T01:16:17.079Z,32.17
2019-05-01T01:18:50.597Z,29.12
2019-05-01T01:21:23.380Z,33.67
2019-05-01T01:24:00.356Z,34.27
2019-05-01T01:26:32.930Z,34.93
2019-05-01T01:29:05.997Z,33.17
2019-05-01T01:31:39.169Z,33.47
2019-05-01T01:34:11.812Z,33.63
2019-05-01T01:36:48.327Z,35.00
2019-05-01T01:39:21.663Z,41.33
2019-05-01T01:41:55.330Z,30.20
2019-05-01T01:44:47.321Z,32.67
2019-05-01T01:47:19.959Z,34.13
2019-05-01T01:49:53.032Z,34.33
2019-05-01T01:52:25.759Z,37.23
2019-05-01T01:54:59.352Z,36.93
2019-05-01T01:57:32.107Z,34.30
2019-05-01T02:00:18.862Z,32.57
2019-05-01T02:02:57.992Z,33.30
2019-05-01T02:05:34.254Z,34.10
2019-05-01T02:08:08.948Z,32.70
2019-05-01T02:10:43.189Z,29.50
2019-05-01T02:13:16.018Z,30.63
2019-05-01T02:15:48.662Z,31.90
2019-05-01T02:18:21.611Z,31.37
2019-05-01T02:20:54.139Z,32.80
2019-05-01T02:23:27.633Z,30.00
2019-05-01T02:26:03.877Z,30.37
2019-05-01T02:28:47.916Z,32.07
2019-05-01T02:31:40.076Z,29.97
2019-05-01T02:34:13.178Z,26.65
2019-05-01T02:36:47.061Z,32.57
2019-05-01T02:39:19.935Z,32.37
2019-05-01T02:41:53.217Z,30.00
2019-05-01T02:44:34.091Z,30.83
2019-05-01T02:47:10.155Z,29.80
2019-05-01T02:49:51.795Z,32.20
2019-05-01T02:52:31.463Z,30.43
2019-05-01T02:55:11.058Z,25.45
2019-05-01T02:57:43.754Z,30.00
2019-05-01T03:00:19.048Z,28.38
2019-05-01T03:02:51.596Z,32.87
2019-05-01T03:05:24.066Z,40.27
2019-05-01T03:07:56.955Z,38.83
2019-05-01T03:10:29.523Z,42.10
2019-05-01T03:13:02.796Z,42.87
2019-05-01T03:15:35.355Z,37.00
2019-05-01T03:18:18.519Z,43.27
2019-05-01T03:20:59.931Z,50.27
2019-05-01T03:23:37.517Z,48.93
2019-05-01T03:26:09.984Z,44.27
2019-05-01T03:28:42.562Z,44.33
2019-05-01T03:31:15.229Z,44.33
2019-05-01T03:33:48.257Z,45.90
2019-05-01T03:36:20.788Z,45.03
2019-05-01T03:38:53.291Z,37.53
2019-05-01T03:41:26.351Z,44.90
2019-05-01T03:43:59.836Z,44.97
2019-05-01T03:46:32.584Z,44.30
2019-05-01T03:49:05.721Z,44.93
2019-05-01T03:51:38.456Z,37.20
2019-05-01T03:54:11.510Z,38.10
2019-05-01T03:56:46.377Z,41.93
2019-05-01T03:59:19.157Z,42.83
2019-05-01T04:02:12.571Z,43.67
2019-05-01T04:04:57.103Z,37.65
2019-05-01T04:07:29.605Z,43.67
2019-05-01T04:10:02.704Z,48.90
2019-05-01T04:12:35.258Z,34.00
2019-05-01T04:15:07.275Z,43.13
2019-05-01T04:17:48.748Z,42.00
2019-05-01T04:20:21.977Z,44.40
2019-05-01T04:22:55.128Z,45.63
2019-05-01T04:25:27.827Z,49.33
2019-05-01T04:28:30.554Z,49.43
2019-05-01T04:31:13.166Z,51.57
2019-05-01T04:33:47.789Z,51.00
2019-05-01T04:36:28.080Z,55.47
2019-05-01T04:39:05.445Z,54.83
2019-05-01T04:41:38.466Z,55.17
2019-05-01T04:44:10.989Z,55.27
2019-05-01T04:46:43.664Z,54.23
2019-05-01T04:49:18.064Z,57.00
2019-05-01T04:51:51.332Z,49.95
2019-05-01T04:54:24.331Z,51.70
2019-05-01T04:56:56.790Z,51.20
2019-05-01T04:59:29.603Z,52.43
2019-05-01T05:02:04.999Z,50.33
2019-05-01T05:04:37.541Z,46.80
2019-05-01T05:07:11.320Z,52.60
2019-05-01T05:09:45.625Z,46.87
2019-05-01T05:12:43.039Z,49.87
2019-05-01T05:15:41.501Z,45.28
2019-05-01T05:18:14.553Z,50.03
2019-05-01T05:20:47.334Z,51.77
2019-05-01T05:23:19.912Z,52.67
2019-05-01T05:25:52.746Z,42.65
2019-05-01T05:28:29.848Z,53.47
2019-05-01T05:31:04.886Z,50.77
2019-05-01T05:33:37.667Z,45.60
2019-05-01T05:36:10.817Z,43.75
2019-05-01T05:38:56.806Z,39.25
2019-05-01T05:41:29.335Z,52.87
2019-05-01T05:44:02.367Z,49.77
2019-05-01T05:46:34.987Z,51.70
2019-05-01T05:49:09.102Z,52.00
2019-05-01T05:51:51.609Z,50.83
2019-05-01T05:54:29.821Z,48.27
2019-05-01T05:57:12.433Z,51.53
2019-05-01T05:59:50.338Z,50.73
2019-05-01T06:02:43.994Z,51.10
2019-05-01T06:05:42.042Z,43.30
2019-05-01T06:08:20.427Z,46.10
2019-05-01T06:11:10.685Z,52.13
2019-05-01T06:14:03.951Z,53.37
2019-05-01T06:17:00.490Z,43.42
2019-05-01T06:19:53.140Z,50.17
2019-05-01T06:22:57.595Z,42.20
2019-05-01T06:25:34.145Z,45.30
2019-05-01T06:28:07.208Z,36.50
2019-05-01T06:30:42.131Z,48.17
2019-05-01T06:33:21.211Z,40.40
2019-05-01T06:35:54.713Z,57.53
2019-05-01T06:38:31.576Z,51.97
2019-05-01T06:41:08.428Z,46.60
2019-05-01T06:44:04.117Z,41.13
2019-05-01T06:46:52.171Z,52.30
2019-05-01T06:49:39.667Z,41.30
2019-05-01T06:52:15.626Z,55.77
2019-05-01T06:54:52.107Z,58.40
2019-05-01T06:57:26.479Z,54.93
2019-05-01T07:00:03.246Z,50.43
2019-05-01T07:02:50.911Z,51.87
2019-05-01T07:05:26.086Z,43.70
2019-05-01T07:07:58.558Z,56.77
2019-05-01T07:10:43.214Z,68.07
2019-05-01T07:13:17.123Z,57.67
2019-05-01T07:15:49.678Z,45.95
2019-05-01T07:18:24.054Z,54.60
2019-05-01T07:21:01.687Z,65.00
2019-05-01T07:23:34.780Z,47.65
2019-05-01T07:26:09.986Z,59.63
2019-05-01T07:28:53.833Z,66.10
2019-05-01T07:31:30.902Z,59.63
2019-05-01T07:34:15.994Z,66.93
2019-05-01T07:36:51.715Z,47.05
2019-05-01T07:39:24.833Z,60.63
2019-05-01T07:42:16.860Z,58.63
2019-05-01T07:44:53.674Z,61.73
2019-05-01T07:47:32.884Z,70.10
2019-05-01T07:50:09.251Z,60.33
2019-05-01T07:52:42.359Z,59.80
2019-05-01T07:55:18.084Z,58.87
2019-05-01T07:57:51.852Z,59.70
2019-05-01T08:01:00.615Z,55.47
2019-05-01T08:03:38.115Z,58.93
2019-05-01T08:06:16.396Z,57.90
2019-05-01T08:08:55.257Z,61.97
2019-05-01T08:11:28.468Z,61.97
2019-05-01T08:14:07.289Z,58.30
2019-05-01T08:16:42.480Z,62.20
2019-05-01T08:19:27.058Z,56.37
2019-05-01T08:22:09.695Z,63.10
2019-05-01T08:24:42.396Z,63.33
2019-05-01T08:27:34.893Z,63.33
2019-05-01T08:30:33.519Z,47.35
2019-05-01T08:33:30.468Z,54.87
2019-05-01T08:36:06.886Z,53.67
2019-05-01T08:38:45.714Z,39.65
2019-05-01T08:41:20.380Z,40.37
2019-05-01T08:43:55.931Z,52.38
2019-05-01T08:46:51.110Z,45.65
2019-05-01T08:49:29.797Z,57.30
2019-05-01T08:52:04.731Z,59.50
2019-05-01T08:54:42.763Z,63.10
2019-05-01T08:57:16.133Z,61.53
2019-05-01T08:59:49.965Z,62.07
2019-05-01T09:02:26.779Z,62.03
2019-05-01T09:05:03.022Z,66.20
2019-05-01T09:07:40.900Z,61.73
2019-05-01T09:10:21.802Z,65.07
2019-05-01T09:12:57.465Z,60.53
2019-05-01T09:15:31.203Z,75.63
2019-05-01T09:18:05.552Z,65.47
2019-05-01T09:20:52.938Z,54.00
2019-05-01T09:23:25.670Z,72.00
2019-05-01T09:26:15.933Z,51.63
2019-05-01T09:28:56.867Z,63.97
2019-05-01T09:31:33.894Z,62.77
2019-05-01T09:34:09.596Z,73.13
2019-05-01T09:36:42.375Z,75.87
2019-05-01T09:39:23.113Z,71.37
2019-05-01T09:41:57.038Z,76.67
2019-05-01T09:44:32.727Z,75.20
2019-05-01T09:47:06.979Z,69.57
2019-05-01T09:49:39.773Z,73.53
2019-05-01T09:52:32.107Z,69.20
2019-05-01T09:55:17.819Z,69.33
2019-05-01T09:57:56.075Z,56.37
2019-05-01T10:00:31.556Z,74.13
2019-05-01T10:03:04.889Z,78.20
2019-05-01T10:05:43.027Z,66.60
2019-05-01T10:08:18.945Z,54.40
2019-05-01T10:10:52.264Z,69.40
2019-05-01T10:13:29.468Z,75.70
2019-05-01T10:16:02.725Z,65.12
2019-05-01T10:18:37.959Z,76.30
2019-05-01T10:21:16.431Z,81.20
2019-05-01T10:23:51.679Z,68.07
2019-05-01T10:26:29.680Z,78.33
2019-05-01T10:29:27.500Z,85.13
2019-05-01T10:32:16.989Z,91.57
2019-05-01T10:35:08.560Z,83.73
2019-05-01T10:37:42.118Z,81.70
2019-05-01T10:40:18.559Z,95.10
2019-05-01T10:42:55.429Z,91.03
2019-05-01T10:45:29.687Z,89.97
2019-05-01T10:48:02.731Z,88.53
2019-05-01T10:50:39.624Z,88.37
2019-05-01T10:53:14.070Z,92.07
2019-05-01T10:55:46.694Z,78.60
2019-05-01T10:58:20.707Z,93.67
2019-05-01T11:01:14.915Z,96.23
2019-05-01T11:03:55.496Z,95.33
2019-05-01T11:06:30.681Z,97.30
2019-05-01T11:09:05.550Z,86.53
2019-05-01T11:11:40.458Z,102.73
2019-05-01T11:14:14.999Z,104.05
2019-05-01T11:16:49.090Z,103.50
2019-05-01T11:19:23.026Z,108.27
2019-05-01T11:21:56.613Z,80.20
2019-05-01T11:24:29.363Z,107.27
2019-05-01T11:27:03.096Z,88.43
2019-05-01T11:29:40.361Z,92.97
2019-05-01T11:32:34.861Z,91.40
2019-05-01T11:35:31.183Z,83.20
2019-05-01T11:38:19.580Z,65.47
2019-05-01T11:40:57.526Z,84.73
2019-05-01T11:43:38.836Z,87.00
2019-05-01T11:46:12.372Z,95.07
2019-05-01T11:48:45.001Z,76.22
2019-05-01T11:51:20.740Z,90.23
2019-05-01T11:53:53.420Z,87.93
2019-05-01T11:56:28.324Z,89.73
2019-05-01T11:59:03.476Z,87.60
2019-05-01T12:01:40.608Z,95.13
2019-05-01T12:04:14.263Z,85.67
2019-05-01T12:06:47.252Z,90.23
2019-05-01T12:09:22.165Z,63.43
2019-05-01T12:12:01.133Z,76.83
2019-05-01T12:14:33.935Z,85.20
2019-05-01T12:17:19.845Z,95.13
2019-05-01T12:19:55.763Z,81.80
2019-05-01T12:22:30.693Z,93.53
2019-05-01T12:25:04.856Z,86.20
2019-05-01T12:27:41.167Z,88.33
2019-05-01T12:30:17.673Z,81.20
2019-05-01T12:32:52.220Z,80.77
2019-05-01T12:35:27.075Z,82.77
2019-05-01T12:38:02.317Z,80.77
2019-05-01T12:40:37.013Z,88.57
2019-05-01T12:43:13.781Z,86.13
2019-05-01T12:45:51.755Z,84.27
2019-05-01T12:48:27.884Z,83.47
2019-05-01T12:51:01.452Z,87.97
2019-05-01T12:54:01.654Z,83.80
2019-05-01T12:56:50.474Z,100.22
2019-05-01T12:59:29.527Z,100.93
2019-05-01T13:02:28.736Z,100.47
2019-05-01T13:05:06.363Z,100.23
2019-05-01T13:07:40.273Z,96.00
2019-05-01T13:10:13.621Z,101.70
2019-05-01T13:12:46.464Z,112.37
2019-05-01T13:15:23.432Z,96.13
2019-05-01T13:17:56.099Z,110.43
2019-05-01T13:20:30.210Z,100.63
2019-05-01T13:23:04.000Z,120.33
2019-05-01T13:25:41.374Z,101.13
2019-05-01T13:28:19.815Z,113.07
2019-05-01T13:31:06.197Z,105.70
2019-05-01T13:33:39.605Z,112.20
2019-05-01T13:36:12.848Z,110.47
2019-05-01T13:38:45.772Z,102.07
2019-05-01T13:41:21.436Z,106.90
2019-05-01T13:43:55.027Z,106.47
2019-05-01T13:46:28.037Z,108.97
2019-05-01T13:49:02.283Z,109.47
2019-05-01T13:51:35.978Z,109.20
2019-05-01T13:54:12.564Z,113.30
2019-05-01T13:56:45.603Z,111.10
2019-05-01T13:59:18.674Z,101.10
2019-05-01T14:01:53.572Z,106.07
2019-05-01T14:04:28.725Z,85.93
2019-05-01T14:07:02.108Z,88.90
2019-05-01T14:09:38.411Z,100.60
2019-05-01T14:12:11.257Z,110.10
2019-05-01T14:14:44.222Z,103.33
2019-05-01T14:17:16.852Z,104.87
2019-05-01T14:20:08.194Z,106.33
2019-05-01T14:22:52.122Z,108.50
2019-05-01T14:25:56.379Z,111.53
2019-05-01T14:28:30.840Z,105.70
2019-05-01T14:31:06.295Z,107.23
2019-05-01T14:33:40.984Z,97.50
2019-05-01T14:36:16.213Z,101.27
2019-05-01T14:38:51.564Z,96.90
2019-05-01T14:41:24.766Z,101.83
2019-05-01T14:43:59.018Z,108.23
2019-05-01T14:46:32.467Z,101.73
2019-05-01T14:49:07.319Z,99.13
2019-05-01T14:51:40.216Z,88.83
2019-05-01T14:54:16.557Z,73.85
2019-05-01T14:56:51.731Z,82.37
2019-05-01T14:59:25.501Z,68.32
2019-05-01T15:02:01.872Z,73.80
2019-05-01T15:04:35.540Z,69.90
2019-05-01T15:07:11.188Z,64.80
2019-05-01T15:09:44.953Z,60.97
2019-05-01T15:12:18.525Z,64.83
2019-05-01T15:15:05.723Z,66.87
2019-05-01T15:17:47.474Z,64.03
2019-05-01T15:20:23.748Z,64.43
2019-05-01T15:23:01.276Z,56.53
2019-05-01T15:25:36.804Z,55.03
2019-05-01T15:28:12.982Z,53.63
2019-05-01T15:30:46.503Z,58.20
2019-05-01T15:33:19.339Z,56.13
2019-05-01T15:35:53.033Z,58.00
2019-05-01T15:38:26.685Z,54.77
2019-05-01T15:41:22.687Z,56.13
2019-05-01T15:44:01.766Z,56.13
2019-05-01T15:46:36.970Z,59.73
2019-05-01T15:49:15.340Z,63.73
2019-05-01T15:51:48.166Z,50.33
2019-05-01T15:54:22.881Z,42.93
2019-05-01T15:56:59.553Z,50.50
2019-05-01T15:59:32.206Z,50.27
2019-05-01T16:02:05.184Z,45.80
2019-05-01T16:04:38.561Z,46.87
2019-05-01T16:07:13.058Z,47.63
2019-05-01T16:09:51.735Z,42.77
2019-05-01T16:12:46.624Z,46.10
2019-05-01T16:15:32.741Z,43.60
2019-05-01T16:18:05.870Z,42.53
2019-05-01T16:20:38.555Z,43.20
2019-05-01T16:23:11.624Z,37.10
2019-05-01T16:25:46.840Z,35.60
2019-05-01T16:28:19.589Z,32.50
2019-05-01T16:30:54.337Z,38.03
2019-05-01T16:33:27.998Z,35.83
2019-05-01T16:36:00.917Z,38.07
2019-05-01T16:38:58.626Z,35.25
2019-05-01T16:41:32.394Z,35.80
2019-05-01T16:44:06.276Z,38.97
2019-05-01T16:46:39.883Z,45.30
2019-05-01T16:49:13.082Z,52.77
2019-05-01T16:51:46.827Z,49.13
2019-05-01T16:54:22.619Z,49.17
2019-05-01T16:56:57.443Z,62.92
2019-05-01T16:59:30.349Z,52.57
2019-05-01T17:02:20.821Z,48.67
2019-05-01T17:05:01.448Z,45.90
2019-05-01T17:07:41.837Z,40.90
2019-05-01T17:10:27.111Z,38.83
2019-05-01T17:13:00.623Z,38.27
2019-05-01T17:15:41.687Z,43.87
2019-05-01T17:18:16.925Z,45.03
2019-05-01T17:20:50.112Z,43.30
2019-05-01T17:23:23.805Z,42.33
2019-05-01T17:26:07.157Z,40.93
2019-05-01T17:28:41.636Z,41.40
2019-05-01T17:31:16.240Z,46.20
2019-05-01T17:33:55.599Z,43.90
2019-05-01T17:36:33.081Z,41.57
2019-05-01T17:39:06.588Z,42.57
2019-05-01T17:41:39.115Z,40.67
2019-05-01T17:44:14.332Z,44.37
2019-05-01T17:46:49.691Z,42.60
2019-05-01T17:49:24.962Z,39.17
2019-05-01T17:51:58.123Z,43.47
2019-05-01T17:54:32.611Z,38.13
2019-05-01T17:57:05.314Z,31.23
2019-05-01T17:59:37.960Z,38.70
2019-05-01T18:02:29.358Z,39.77
2019-05-01T18:05:24.639Z,39.00
2019-05-01T18:07:57.511Z,39.47
2019-05-01T18:10:34.119Z,41.30
2019-05-01T18:13:12.138Z,43.00
2019-05-01T18:15:46.558Z,42.47
2019-05-01T18:18:19.839Z,34.42
2019-05-01T18:20:53.314Z,36.43
2019-05-01T18:23:53.065Z,41.20
2019-05-01T18:26:38.768Z,39.20
2019-05-01T18:29:24.595Z,39.30
2019-05-01T18:32:03.081Z,41.73
2019-05-01T18:34:41.481Z,43.97
2019-05-01T18:37:23.072Z,42.37
2019-05-01T18:39:56.302Z,43.80
2019-05-01T18:42:31.730Z,43.80
2019-05-01T18:45:14.324Z,44.97
2019-05-01T18:47:47.729Z,44.60
2019-05-01T18:50:21.558Z,43.23
2019-05-01T18:52:54.681Z,44.73
2019-05-01T18:55:30.381Z,44.13
2019-05-01T18:58:04.588Z,46.13
2019-05-01T19:00:38.110Z,51.93
2019-05-01T19:03:11.782Z,50.57
2019-05-01T19:05:48.131Z,338.00
2019-05-01T19:08:23.090Z,126.30
2019-05-01T19:11:12.319Z,706.43
2019-05-01T19:13:49.713Z,856.60
2019-05-01T19:16:24.225Z,752.10
2019-05-01T19:18:58.278Z,251.20
2019-05-01T19:21:32.381Z,68.93
2019-05-01T19:24:08.305Z,59.57
2019-05-01T19:26:44.095Z,57.10
2019-05-01T19:29:19.941Z,180.35
2019-05-01T19:31:53.846Z,78.00
2019-05-01T19:34:30.156Z,50.83
2019-05-01T19:37:05.098Z,48.57
2019-05-01T19:39:43.961Z,47.90
2019-05-01T19:42:21.704Z,48.77
2019-05-01T19:44:58.763Z,47.07
2019-05-01T19:47:33.129Z,49.13
2019-05-01T19:50:11.736Z,48.80
2019-05-01T19:52:46.357Z,48.90
2019-05-01T19:55:19.899Z,40.90
2019-05-01T19:57:53.945Z,46.07
2019-05-01T20:01:05.676Z,49.10
2019-05-01T20:03:38.738Z,48.03
2019-05-01T20:06:13.415Z,47.70
2019-05-01T20:08:46.649Z,48.43
2019-05-01T20:11:27.419Z,46.90
2019-05-01T20:14:06.012Z,50.73
2019-05-01T20:16:40.475Z,52.17
2019-05-01T20:19:13.308Z,51.47
2019-05-01T20:21:45.920Z,45.80
2019-05-01T20:24:20.425Z,38.35
2019-05-01T20:26:53.492Z,46.10
2019-05-01T20:29:27.561Z,45.40
2019-05-01T20:32:01.691Z,49.10
2019-05-01T20:34:36.035Z,50.37
2019-05-01T20:37:09.271Z,46.13
2019-05-01T20:39:41.950Z,50.33
2019-05-01T20:42:17.735Z,40.00
2019-05-01T20:45:03.970Z,47.40
2019-05-01T20:47:46.004Z,48.30
2019-05-01T20:50:22.883Z,41.05
2019-05-01T20:52:58.716Z,47.03
2019-05-01T20:55:32.916Z,47.27
2019-05-01T20:58:12.843Z,48.63
2019-05-01T21:00:48.225Z,47.50
2019-05-01T21:03:28.096Z,49.37
2019-05-01T21:06:23.575Z,41.78
2019-05-01T21:09:02.571Z,42.80
2019-05-01T21:11:42.135Z,46.40
2019-05-01T21:14:22.849Z,50.30
2019-05-01T21:16:56.064Z,42.53
2019-05-01T21:19:32.504Z,51.63
2019-05-01T21:22:08.463Z,48.93
2019-05-01T21:24:41.595Z,49.30
2019-05-01T21:27:16.976Z,50.93
2019-05-01T21:29:50.940Z,53.00
2019-05-01T21:32:27.511Z,55.07
2019-05-01T21:35:02.221Z,51.00
2019-05-01T21:37:36.182Z,54.83
2019-05-01T21:40:12.727Z,52.13
2019-05-01T21:42:47.290Z,52.00
2019-05-01T21:45:24.920Z,50.87
2019-05-01T21:47:57.720Z,50.83
2019-05-01T21:50:31.164Z,40.95
2019-05-01T21:53:06.957Z,47.73
2019-05-01T21:55:41.395Z,47.87
2019-05-01T21:58:15.325Z,49.83
2019-05-01T22:00:51.072Z,48.60
2019-05-01T22:03:23.999Z,49.67
2019-05-01T22:05:56.995Z,46.33
2019-05-01T22:08:34.576Z,48.70
2019-05-01T22:11:12.851Z,46.20
2019-05-01T22:13:48.701Z,42.90
2019-05-01T22:16:26.834Z,38.70
2019-05-01T22:19:13.405Z,44.97
2019-05-01T22:22:03.345Z,46.00
2019-05-01T22:24:42.930Z,47.77
2019-05-01T22:27:23.433Z,51.17
2019-05-01T22:30:10.792Z,40.33
2019-05-01T22:32:50.359Z,47.97
2019-05-01T22:35:33.905Z,41.60
2019-05-01T22:38:08.096Z,39.15
2019-05-01T22:41:06.553Z,46.50
2019-05-01T22:43:39.960Z,48.33
2019-05-01T22:46:22.741Z,47.70
2019-05-01T22:48:55.350Z,44.60
2019-05-01T22:51:27.942Z,46.27
2019-05-01T22:54:03.171Z,47.30
2019-05-01T22:56:36.627Z,46.30
2019-05-01T22:59:11.478Z,49.53
2019-05-01T23:01:53.054Z,47.27
2019-05-01T23:04:27.497Z,45.30
2019-05-01T23:07:00.152Z,45.73
2019-05-01T23:09:35.337Z,44.63
2019-05-01T23:12:09.448Z,49.77
2019-05-01T23:14:45.151Z,49.67
2019-05-01T23:17:29.991Z,48.80
2019-05-01T23:20:03.985Z,51.77
2019-05-01T23:22:37.980Z,53.73
2019-05-01T23:25:11.012Z,47.40
2019-05-01T23:27:43.672Z,53.63
2019-05-01T23:30:20.254Z,51.70
2019-05-01T23:32:53.239Z,54.13
2019-05-01T23:35:25.856Z,51.60
2019-05-01T23:37:58.291Z,48.70
2019-05-01T23:40:30.994Z,50.97
2019-05-01T23:43:03.892Z,51.47
2019-05-01T23:45:36.499Z,51.93
2019-05-01T23:48:09.316Z,48.00
2019-05-01T23:50:42.539Z,49.57
2019-05-01T23:53:15.213Z,45.50
2019-05-01T23:55:49.683Z,44.73
2019-05-01T23:58:23.658Z,44.83
